createdAt,value
2023-09-28T00:04:10.660Z,18.61
2023-09-28T00:09:13.928Z,19.74
2023-09-28T00:14:17.168Z,20.37
2023-09-28T00:19:20.453Z,20.71
2023-09-28T00:24:25.720Z,20.95
2023-09-28T00:29:29.125Z,21.15
2023-09-28T00:34:32.334Z,21.28
2023-09-28T00:39:37.174Z,21.38
2023-09-28T00:44:40.395Z,21.44
2023-09-28T00:49:45.530Z,21.53
2023-09-28T00:54:51.206Z,21.60
2023-09-28T00:59:55.754Z,21.65
2023-09-28T01:04:59.279Z,21.11
2023-09-28T01:10:02.513Z,19.57
2023-09-28T01:15:12.470Z,18.46
2023-09-28T01:20:20.053Z,18.28
2023-09-28T01:25:23.665Z,19.35
2023-09-28T01:30:26.965Z,19.92
2023-09-28T01:35:31.514Z,20.23
2023-09-28T01:40:34.745Z,20.38
2023-09-28T01:45:38.349Z,20.44
2023-09-28T01:50:41.579Z,20.54
2023-09-28T01:55:44.884Z,20.65
2023-09-28T02:00:48.196Z,20.78
2023-09-28T02:05:51.534Z,20.82
2023-09-28T02:10:54.933Z,20.79
2023-09-28T02:15:58.433Z,20.70
2023-09-28T02:21:01.840Z,20.67
2023-09-28T02:26:09.329Z,20.67
2023-09-28T02:31:12.986Z,20.67
2023-09-28T02:36:16.531Z,20.67
2023-09-28T02:41:21.873Z,20.69
2023-09-28T02:46:27.167Z,20.70
2023-09-28T02:51:30.542Z,20.68
2023-09-28T02:56:33.750Z,20.72
2023-09-28T03:01:36.970Z,20.75
2023-09-28T03:06:40.775Z,20.72
2023-09-28T03:11:44.077Z,20.59
2023-09-28T03:16:47.419Z,20.46
2023-09-28T03:21:50.800Z,20.38
2023-09-28T03:27:07.998Z,20.37
2023-09-28T03:32:13.147Z,20.29
2023-09-28T03:37:20.283Z,20.26
2023-09-28T03:42:23.388Z,20.19
2023-09-28T03:47:26.966Z,20.14
2023-09-28T03:52:31.445Z,20.12
2023-09-28T03:57:34.685Z,20.16
2023-09-28T04:02:38.390Z,20.21
2023-09-28T04:07:43.265Z,20.28
2023-09-28T04:12:46.536Z,20.35
2023-09-28T04:17:49.847Z,20.37
2023-09-28T04:22:53.555Z,20.36
2023-09-28T04:27:57.293Z,20.30
2023-09-28T04:33:00.624Z,20.20
2023-09-28T04:38:04.657Z,20.09
2023-09-28T04:43:07.933Z,19.99
2023-09-28T04:48:11.247Z,19.89
2023-09-28T04:53:15.029Z,19.77
2023-09-28T04:58:18.787Z,19.64
2023-09-28T05:03:21.959Z,19.55
2023-09-28T05:08:25.636Z,19.46
2023-09-28T05:13:33.062Z,19.32
2023-09-28T05:18:39.434Z,19.32
2023-09-28T05:23:43.714Z,19.29
2023-09-28T05:28:46.995Z,19.36
2023-09-28T05:33:51.635Z,19.42
2023-09-28T05:38:54.836Z,19.55
2023-09-28T05:43:58.053Z,19.66
2023-09-28T05:49:01.247Z,19.72
2023-09-28T05:54:05.057Z,19.85
2023-09-28T05:59:08.816Z,19.99
2023-09-28T06:04:13.413Z,20.07
2023-09-28T06:09:16.644Z,20.18
2023-09-28T06:14:21.196Z,20.32
2023-09-28T06:19:24.609Z,20.25
2023-09-28T06:24:27.779Z,19.02
2023-09-28T06:29:33.615Z,18.03
2023-09-28T06:34:36.865Z,18.29
2023-09-28T06:39:40.201Z,19.47
2023-09-28T06:44:43.392Z,20.11
2023-09-28T06:49:46.501Z,20.54
2023-09-28T06:54:49.701Z,20.38
2023-09-28T06:59:52.914Z,19.19
2023-09-28T07:04:57.376Z,18.53
2023-09-28T07:10:00.873Z,19.45
2023-09-28T07:15:05.719Z,20.55
2023-09-28T07:20:09.659Z,21.21
2023-09-28T07:25:12.877Z,21.17
2023-09-28T07:30:20.486Z,20.04
2023-09-28T07:35:24.004Z,19.48
2023-09-28T07:40:36.531Z,20.53
2023-09-28T07:45:51.316Z,21.47
2023-09-28T07:50:55.207Z,20.89
2023-09-28T07:55:59.119Z,20.16
2023-09-28T08:01:03.210Z,19.84
2023-09-28T08:06:06.472Z,20.78
2023-09-28T08:11:09.824Z,22.11
2023-09-28T08:16:13.534Z,21.78
2023-09-28T08:21:16.847Z,21.13
2023-09-28T08:26:20.114Z,20.82
2023-09-28T08:31:23.463Z,20.73
2023-09-28T08:36:30.897Z,20.77
2023-09-28T08:41:48.650Z,20.92
2023-09-28T08:46:59.201Z,22.41
2023-09-28T08:52:04.637Z,23.25
2023-09-28T08:57:08.313Z,22.70
2023-09-28T09:02:12.204Z,22.41
2023-09-28T09:07:17.077Z,22.32
2023-09-28T09:12:20.749Z,22.33
2023-09-28T09:17:37.090Z,22.41
2023-09-28T09:22:53.441Z,22.55
2023-09-28T09:28:03.760Z,22.70
2023-09-28T09:33:10.207Z,22.89
2023-09-28T09:38:14.094Z,23.11
2023-09-28T09:43:17.341Z,23.35
2023-09-28T09:48:22.888Z,23.55
2023-09-28T09:53:28.270Z,23.74
2023-09-28T09:58:40.412Z,23.93
2023-09-28T10:03:52.852Z,24.16
2023-09-28T10:08:56.802Z,24.40
2023-09-28T10:14:01.094Z,24.57
2023-09-28T10:19:08.130Z,24.75
2023-09-28T10:24:13.789Z,24.93
2023-09-28T10:29:30.569Z,25.09
2023-09-28T10:34:33.818Z,25.27
2023-09-28T10:39:37.147Z,25.41
2023-09-28T10:44:58.750Z,25.58
2023-09-28T10:50:06.252Z,25.74
2023-09-28T10:55:10.097Z,25.88
2023-09-28T11:00:14.241Z,25.99
2023-09-28T11:05:21.746Z,26.13
2023-09-28T11:10:25.758Z,26.32
2023-09-28T11:15:31.167Z,26.43
2023-09-28T11:20:34.581Z,26.54
2023-09-28T11:25:46.046Z,26.58
2023-09-28T11:31:10.183Z,26.61
2023-09-28T11:36:23.427Z,26.68
2023-09-28T11:41:28.029Z,26.72
2023-09-28T11:46:33.630Z,26.83
2023-09-28T11:51:39.392Z,27.02
2023-09-28T11:56:46.575Z,27.21
2023-09-28T12:01:53.702Z,27.39
2023-09-28T12:06:57.173Z,27.50
2023-09-28T12:12:00.558Z,27.60
2023-09-28T12:17:05.353Z,27.76
2023-09-28T12:22:08.954Z,27.93
2023-09-28T12:27:13.624Z,28.08
2023-09-28T12:32:16.852Z,28.22
2023-09-28T12:37:20.043Z,28.31
2023-09-28T12:42:25.991Z,28.44
2023-09-28T12:47:29.194Z,28.57
2023-09-28T12:52:33.123Z,28.57
2023-09-28T12:57:36.863Z,28.59
2023-09-28T13:02:40.638Z,28.65
2023-09-28T13:07:44.093Z,28.72
2023-09-28T13:12:47.829Z,28.82
2023-09-28T13:17:51.140Z,28.91
2023-09-28T13:22:58.878Z,28.87
2023-09-28T13:28:02.587Z,28.90
2023-09-28T13:33:08.226Z,28.99
2023-09-28T13:38:11.818Z,29.05
2023-09-28T13:43:15.252Z,29.13
2023-09-28T13:48:18.491Z,29.26
2023-09-28T13:53:22.038Z,29.36
2023-09-28T13:58:26.448Z,29.43
2023-09-28T14:03:31.229Z,29.62
2023-09-28T14:08:35.420Z,29.76
2023-09-28T14:13:38.904Z,29.83
2023-09-28T14:18:42.366Z,29.87
2023-09-28T14:23:46.035Z,29.86
2023-09-28T14:28:49.458Z,29.87
2023-09-28T14:33:52.961Z,29.85
2023-09-28T14:38:56.378Z,29.76
2023-09-28T14:44:00.816Z,29.72
2023-09-28T14:49:04.844Z,29.64
2023-09-28T14:54:08.271Z,29.54
2023-09-28T14:59:11.943Z,29.47
2023-09-28T15:04:15.452Z,29.40
2023-09-28T15:09:18.537Z,29.28
2023-09-28T15:14:21.854Z,29.14
2023-09-28T15:19:25.022Z,28.99
2023-09-28T15:24:28.354Z,28.80
2023-09-28T15:29:31.607Z,28.54
2023-09-28T15:34:34.861Z,28.30
2023-09-28T15:39:38.476Z,28.12
2023-09-28T15:44:41.720Z,27.99
2023-09-28T15:49:45.746Z,27.79
2023-09-28T15:54:48.917Z,27.58
2023-09-28T15:59:52.258Z,27.28
2023-09-28T16:04:56.356Z,26.91
2023-09-28T16:09:59.583Z,26.58
2023-09-28T16:15:03.522Z,26.26
2023-09-28T16:20:08.310Z,25.99
2023-09-28T16:25:11.647Z,25.64
2023-09-28T16:30:14.967Z,25.32
2023-09-28T16:35:18.287Z,25.04
2023-09-28T16:40:22.504Z,24.74
2023-09-28T16:45:25.710Z,24.53
2023-09-28T16:50:30.006Z,24.32
2023-09-28T16:55:35.621Z,24.15
2023-09-28T17:00:38.919Z,23.96
2023-09-28T17:05:42.540Z,23.73
2023-09-28T17:10:46.053Z,23.50
2023-09-28T17:15:50.253Z,23.22
2023-09-28T17:20:53.621Z,22.93
2023-09-28T17:25:57.143Z,22.58
2023-09-28T17:31:00.237Z,22.20
2023-09-28T17:36:03.754Z,21.81
2023-09-28T17:41:12.022Z,21.46
2023-09-28T17:46:15.215Z,21.19
2023-09-28T17:51:18.396Z,20.87
2023-09-28T17:56:21.844Z,20.50
2023-09-28T18:01:25.132Z,20.18
2023-09-28T18:06:28.330Z,19.85
2023-09-28T18:11:31.650Z,19.69
2023-09-28T18:16:38.202Z,19.61
2023-09-28T18:21:41.477Z,19.51
2023-09-28T18:26:44.972Z,19.40
2023-09-28T18:31:48.401Z,19.88
2023-09-28T18:36:51.567Z,21.77
2023-09-28T18:41:54.798Z,22.38
2023-09-28T18:46:58.902Z,22.16
2023-09-28T18:52:02.790Z,20.95
2023-09-28T18:57:07.229Z,20.16
2023-09-28T19:02:10.622Z,19.53
2023-09-28T19:07:14.316Z,19.03
2023-09-28T19:12:17.720Z,19.23
2023-09-28T19:17:21.049Z,20.58
2023-09-28T19:22:24.452Z,21.42
2023-09-28T19:27:37.870Z,22.02
2023-09-28T19:32:43.995Z,21.84
2023-09-28T19:37:47.381Z,20.57
2023-09-28T19:42:50.713Z,19.62
2023-09-28T19:47:54.171Z,18.91
2023-09-28T19:52:57.647Z,19.03
2023-09-28T19:58:01.135Z,20.25
2023-09-28T20:03:05.866Z,20.98
2023-09-28T20:08:10.243Z,21.46
2023-09-28T20:13:13.426Z,21.30
2023-09-28T20:18:17.056Z,20.13
2023-09-28T20:23:20.496Z,19.34
2023-09-28T20:28:24.320Z,18.78
2023-09-28T20:33:27.932Z,18.31
2023-09-28T20:38:32.021Z,18.57
2023-09-28T20:43:35.246Z,19.90
2023-09-28T20:48:38.628Z,20.68
2023-09-28T20:53:42.246Z,20.61
2023-09-28T20:58:45.703Z,19.44
2023-09-28T21:03:50.299Z,18.64
2023-09-28T21:08:53.833Z,18.15
2023-09-28T21:13:57.444Z,18.37
2023-09-28T21:19:01.166Z,19.73
2023-09-28T21:24:06.754Z,20.51
2023-09-28T21:29:09.970Z,20.95
2023-09-28T21:34:13.480Z,20.73
2023-09-28T21:39:16.582Z,19.46
2023-09-28T21:44:19.916Z,18.59
2023-09-28T21:49:23.209Z,18.01
2023-09-28T21:54:27.683Z,18.14
2023-09-28T21:59:30.864Z,19.42
2023-09-28T22:04:35.325Z,20.14
2023-09-28T22:09:38.502Z,20.56
2023-09-28T22:14:41.864Z,20.82
2023-09-28T22:19:45.116Z,20.99
2023-09-28T22:24:48.343Z,20.66
2023-09-28T22:29:51.684Z,19.30
2023-09-28T22:34:54.961Z,18.33
2023-09-28T22:40:02.801Z,17.67
2023-09-28T22:45:12.017Z,17.74
2023-09-28T22:50:16.116Z,18.91
2023-09-28T22:55:19.389Z,19.57
2023-09-28T23:00:22.768Z,19.99
2023-09-28T23:05:26.337Z,20.30
2023-09-28T23:10:30.523Z,19.98
2023-09-28T23:15:34.786Z,18.59
2023-09-28T23:20:39.653Z,17.67
2023-09-28T23:25:44.074Z,17.62
2023-09-28T23:30:49.626Z,18.71
2023-09-28T23:35:52.864Z,19.35
2023-09-28T23:40:59.814Z,19.71
2023-09-28T23:46:04.355Z,19.90
2023-09-28T23:51:09.094Z,20.01
2023-09-28T23:56:14.134Z,20.08
